Time;durP1;ratioP1;P1;durP2;ratioP2;P2;SDS_P1;SDS_P2;PMS_P1;PMS_P2;Temp;Humidity;BMP_temperature;BMP_pressure;BME280_temperature;BME280_humidity;BME280_pressure;Samples;Min_cycle;Max_cycle;Signal;HPM_P1;HPM_P2
2021/06/26 00:00:51;;;;;;;12.73;8.65;;;18.90;99.90;;;;;;5053258;28;20168;-85
2021/06/26 00:03:21;;;;;;;10.50;9.48;;;18.90;99.90;;;;;;5053012;28;20587;-86
2021/06/26 00:05:47;;;;;;;10.48;9.48;;;18.90;99.90;;;;;;5062462;28;20182;-85
2021/06/26 00:08:13;;;;;;;11.25;10.10;;;18.90;99.90;;;;;;5073036;28;20167;-85
2021/06/26 00:10:41;;;;;;;14.75;10.23;;;18.90;99.90;;;;;;5073131;28;20170;-86
2021/06/26 00:13:07;;;;;;;11.88;10.60;;;19.00;99.90;;;;;;5055400;28;20265;-86
2021/06/26 00:15:33;;;;;;;10.52;9.65;;;19.00;99.90;;;;;;5070794;28;20262;-86
2021/06/26 00:17:58;;;;;;;11.05;9.82;;;19.00;99.90;;;;;;5052958;28;20482;-86
2021/06/26 00:20:24;;;;;;;14.07;10.13;;;19.00;99.90;;;;;;5071743;28;20178;-86
2021/06/26 00:22:50;;;;;;;12.02;10.73;;;19.00;99.90;;;;;;5071115;28;20622;-86
2021/06/26 00:25:15;;;;;;;11.32;10.05;;;19.00;99.90;;;;;;5053701;28;20175;-87
2021/06/26 00:27:41;;;;;;;11.18;9.98;;;19.00;99.90;;;;;;5071661;28;20178;-86
2021/06/26 00:30:07;;;;;;;10.27;8.77;;;19.00;99.90;;;;;;5072099;28;20171;-86
2021/06/26 00:32:33;;;;;;;13.82;9.43;;;18.90;99.90;;;;;;5055131;28;20635;-86
2021/06/26 00:34:58;;;;;;;12.07;11.05;;;18.90;99.90;;;;;;5043518;28;20204;-86
2021/06/26 00:37:24;;;;;;;22.95;11.45;;;18.90;99.90;;;;;;5027223;28;20642;-86
2021/06/26 00:39:50;;;;;;;11.20;10.20;;;18.90;99.90;;;;;;5073002;28;20198;-86
2021/06/26 00:42:16;;;;;;;11.10;9.95;;;19.00;99.90;;;;;;5072869;28;20623;-86
2021/06/26 00:44:41;;;;;;;18.17;10.45;;;18.90;99.90;;;;;;5070307;28;20284;-86
2021/06/26 00:47:13;;;;;;;18.85;12.52;;;18.80;99.90;;;;;;5069364;28;20179;-86
2021/06/26 00:49:41;;;;;;;14.55;11.18;;;18.80;99.90;;;;;;5056895;28;20159;-86
2021/06/26 00:52:08;;;;;;;11.60;10.40;;;18.90;99.90;;;;;;5056853;28;20620;-86
2021/06/26 00:54:36;;;;;;;13.68;10.35;;;18.90;99.90;;;;;;5040071;28;20187;-86
2021/06/26 00:57:02;;;;;;;11.75;9.43;;;18.90;99.90;;;;;;5057826;28;20268;-86
2021/06/26 00:59:28;;;;;;;9.40;8.52;;;18.90;99.90;;;;;;5038809;28;20168;-87
2021/06/26 01:01:54;;;;;;;18.35;10.52;;;18.80;99.90;;;;;;5055366;28;20711;-87
2021/06/26 01:04:20;;;;;;;11.27;9.57;;;18.70;99.90;;;;;;5057789;28;20207;-86
2021/06/26 01:06:45;;;;;;;12.48;9.00;;;18.70;99.90;;;;;;5038321;28;20167;-87
2021/06/26 01:09:11;;;;;;;14.93;9.15;;;18.70;99.90;;;;;;5072628;28;20174;-86
2021/06/26 01:11:37;;;;;;;13.55;8.45;;;18.80;99.90;;;;;;5075135;28;20170;-85
2021/06/26 01:14:03;;;;;;;8.95;8.05;;;18.80;99.90;;;;;;5074527;28;20217;-85
2021/06/26 01:16:29;;;;;;;11.95;9.68;;;18.80;99.90;;;;;;5072942;28;20199;-85
2021/06/26 01:18:54;;;;;;;12.85;9.35;;;18.80;99.90;;;;;;5043921;28;20206;-86
2021/06/26 01:21:20;;;;;;;12.40;9.23;;;18.80;99.90;;;;;;5038152;28;20195;-86
2021/06/26 01:23:49;;;;;;;10.98;9.18;;;18.80;99.90;;;;;;5055926;28;20160;-86
2021/06/26 01:26:16;;;;;;;10.77;9.23;;;18.80;99.90;;;;;;5058196;28;20576;-85
2021/06/26 01:28:42;;;;;;;12.20;8.95;;;18.80;99.90;;;;;;5037959;28;20171;-85
2021/06/26 01:31:08;;;;;;;11.45;8.80;;;18.80;99.90;;;;;;5037275;28;20693;-85
2021/06/26 01:33:34;;;;;;;13.18;9.50;;;18.80;99.90;;;;;;5055648;28;20182;-85
2021/06/26 01:36:00;;;;;;;9.90;8.93;;;18.80;99.90;;;;;;5068606;28;20175;-85
2021/06/26 01:38:26;;;;;;;9.90;8.90;;;18.80;99.90;;;;;;5074011;28;20195;-84
2021/06/26 01:40:52;;;;;;;13.85;8.93;;;18.80;99.90;;;;;;5039600;28;20172;-84
2021/06/26 01:43:17;;;;;;;11.50;8.70;;;18.80;99.90;;;;;;5055479;28;20159;-85
2021/06/26 01:45:43;;;;;;;13.25;9.32;;;18.80;99.90;;;;;;5067692;28;20185;-85
2021/06/26 01:48:09;;;;;;;10.32;9.32;;;18.80;99.90;;;;;;5074060;28;20216;-84
2021/06/26 01:50:35;;;;;;;10.77;9.13;;;18.90;99.90;;;;;;5065831;28;20171;-84
2021/06/26 01:53:01;;;;;;;10.50;9.23;;;18.90;99.90;;;;;;5057526;28;20178;-84
2021/06/26 01:55:28;;;;;;;10.48;8.98;;;18.90;99.90;;;;;;5055891;28;20162;-84
2021/06/26 01:57:54;;;;;;;10.00;9.00;;;18.90;99.90;;;;;;5056758;28;20222;-84
2021/06/26 02:00:22;;;;;;;10.85;9.00;;;18.90;99.90;;;;;;5045814;28;20183;-85
2021/06/26 02:02:48;;;;;;;9.30;8.50;;;18.80;99.90;;;;;;5054906;28;20159;-84
2021/06/26 02:05:17;;;;;;;9.93;7.95;;;18.80;99.90;;;;;;5059068;28;20854;-84
2021/06/26 02:07:43;;;;;;;11.73;7.57;;;18.80;99.90;;;;;;5037181;28;20469;-84
2021/06/26 02:10:10;;;;;;;10.38;7.43;;;18.80;99.90;;;;;;5045683;28;20269;-85
2021/06/26 02:12:36;;;;;;;14.77;8.00;;;18.80;99.90;;;;;;5073676;28;20197;-85
2021/06/26 02:15:02;;;;;;;7.55;6.93;;;18.80;99.90;;;;;;5055366;28;20186;-85
2021/06/26 02:17:28;;;;;;;7.47;6.78;;;18.80;99.90;;;;;;5074740;28;20264;-84
2021/06/26 02:19:53;;;;;;;10.98;7.10;;;18.80;99.90;;;;;;5067331;28;20180;-84
2021/06/26 02:22:19;;;;;;;6.45;5.82;;;18.80;99.90;;;;;;5054689;28;20221;-84
2021/06/26 02:24:45;;;;;;;7.03;6.13;;;18.70;99.90;;;;;;5055634;28;20174;-85
2021/06/26 02:27:11;;;;;;;6.38;5.88;;;18.70;99.90;;;;;;5054649;28;20179;-84
2021/06/26 02:29:36;;;;;;;7.68;6.25;;;18.70;99.90;;;;;;5036934;28;20206;-84
2021/06/26 02:32:03;;;;;;;7.43;6.22;;;18.70;99.90;;;;;;5054411;28;20163;-84
2021/06/26 02:34:29;;;;;;;5.65;5.25;;;18.80;99.90;;;;;;5055749;28;20575;-84
2021/06/26 02:36:55;;;;;;;12.23;6.68;;;18.80;99.90;;;;;;5054636;28;20190;-84
2021/06/26 02:39:20;;;;;;;6.25;5.53;;;18.80;99.90;;;;;;5070937;28;20205;-83
2021/06/26 02:41:46;;;;;;;8.30;6.50;;;18.80;99.90;;;;;;5036553;28;20571;-85
2021/06/26 02:44:11;;;;;;;6.82;6.13;;;18.80;99.90;;;;;;5055335;28;20529;-85
2021/06/26 02:46:41;;;;;;;7.53;6.93;;;18.90;99.90;;;;;;5052720;28;20195;-85
2021/06/26 02:49:06;;;;;;;7.20;6.50;;;18.80;99.90;;;;;;5054005;28;20167;-84
2021/06/26 02:51:32;;;;;;;11.02;6.55;;;18.90;99.90;;;;;;5054883;28;20216;-85
2021/06/26 02:53:58;;;;;;;7.18;6.47;;;18.90;99.90;;;;;;5073022;28;20166;-85
2021/06/26 02:56:23;;;;;;;12.95;6.70;;;18.80;99.90;;;;;;5059158;28;20579;-85
2021/06/26 02:58:49;;;;;;;6.18;5.68;;;18.80;99.90;;;;;;5054044;28;20191;-84
2021/06/26 03:01:18;;;;;;;10.27;5.65;;;18.80;99.90;;;;;;5068397;28;20623;-85
2021/06/26 03:03:44;;;;;;;6.45;5.80;;;18.60;99.90;;;;;;5016412;28;20204;-84
2021/06/26 03:06:09;;;;;;;9.77;4.82;;;18.50;99.90;;;;;;5038145;28;20199;-84
2021/06/26 03:08:35;;;;;;;8.18;5.60;;;18.40;99.90;;;;;;5053194;28;20171;-85
2021/06/26 03:11:01;;;;;;;8.07;5.50;;;18.50;99.90;;;;;;5067043;28;20170;-85
2021/06/26 03:13:26;;;;;;;5.60;5.10;;;18.60;99.90;;;;;;5037588;28;20167;-85
2021/06/26 03:15:53;;;;;;;6.10;5.60;;;18.60;99.90;;;;;;5054731;28;20171;-85
2021/06/26 03:18:18;;;;;;;6.57;5.22;;;18.60;99.90;;;;;;5052608;28;20191;-85
2021/06/26 03:20:44;;;;;;;6.97;5.50;;;18.60;99.90;;;;;;5064682;28;20579;-85
2021/06/26 03:23:10;;;;;;;6.60;5.95;;;18.60;99.90;;;;;;5073840;28;20163;-85
2021/06/26 03:25:35;;;;;;;6.45;5.78;;;18.70;99.90;;;;;;5054163;28;20162;-85
2021/06/26 03:28:01;;;;;;;6.47;5.95;;;18.70;99.90;;;;;;5015934;28;20262;-85
2021/06/26 03:30:27;;;;;;;7.30;6.43;;;18.60;99.90;;;;;;5050378;28;20273;-85
2021/06/26 03:32:52;;;;;;;6.18;5.57;;;18.60;99.90;;;;;;5073674;28;20159;-85
2021/06/26 03:35:18;;;;;;;6.88;6.22;;;18.70;99.90;;;;;;5055302;28;20573;-85
2021/06/26 03:37:44;;;;;;;7.00;6.13;;;18.70;99.90;;;;;;5053873;28;20198;-85
2021/06/26 03:40:11;;;;;;;5.55;5.03;;;18.70;99.90;;;;;;5069784;28;20223;-84
2021/06/26 03:42:37;;;;;;;7.40;5.85;;;18.70;99.90;;;;;;5053355;28;20159;-85
2021/06/26 03:45:04;;;;;;;6.90;6.15;;;18.70;99.90;;;;;;5053456;28;20242;-85
2021/06/26 03:47:30;;;;;;;6.60;6.10;;;18.50;99.90;;;;;;5062867;28;20224;-85
2021/06/26 03:49:55;;;;;;;6.72;6.07;;;18.40;99.90;;;;;;5073272;28;20159;-85
2021/06/26 03:52:21;;;;;;;6.43;5.85;;;18.30;99.90;;;;;;5036682;28;20262;-85
2021/06/26 03:54:47;;;;;;;6.82;6.25;;;18.20;99.90;;;;;;5053225;28;20239;-85
2021/06/26 03:57:12;;;;;;;7.57;5.95;;;18.20;99.90;;;;;;5054417;28;20199;-85
2021/06/26 03:59:38;;;;;;;8.00;5.82;;;18.20;99.90;;;;;;5073159;28;20167;-85
2021/06/26 04:02:07;;;;;;;7.32;6.72;;;18.30;99.90;;;;;;5038841;28;20168;-85
2021/06/26 04:04:36;;;;;;;7.57;6.72;;;18.40;99.90;;;;;;5053113;28;20187;-85
2021/06/26 04:07:03;;;;;;;13.63;6.88;;;18.40;99.90;;;;;;5054359;28;20286;-86
2021/06/26 04:09:29;;;;;;;6.63;6.07;;;18.50;99.90;;;;;;5053066;28;20199;-85
2021/06/26 04:11:55;;;;;;;7.18;6.45;;;18.50;99.90;;;;;;5066281;28;20279;-85
2021/06/26 04:14:21;;;;;;;7.80;7.00;;;18.60;99.90;;;;;;5071818;28;20171;-85
2021/06/26 04:16:46;;;;;;;7.75;6.82;;;18.60;99.90;;;;;;5055071;28;20257;-85
2021/06/26 04:19:15;;;;;;;7.22;6.53;;;18.70;99.90;;;;;;5061338;28;20179;-85
2021/06/26 04:21:42;;;;;;;6.35;5.75;;;18.90;99.90;;;;;;5069381;28;20174;-85
2021/06/26 04:24:07;;;;;;;7.63;6.75;;;18.90;99.90;;;;;;5077270;28;20166;-85
2021/06/26 04:26:33;;;;;;;10.15;6.25;;;18.90;99.90;;;;;;5077060;28;20159;-85
2021/06/26 04:28:59;;;;;;;6.75;6.07;;;19.00;99.90;;;;;;5052300;28;20627;-85
2021/06/26 04:31:24;;;;;;;5.85;5.40;;;19.10;99.90;;;;;;5067225;28;20181;-85
2021/06/26 04:33:50;;;;;;;4.90;4.50;;;19.20;99.90;;;;;;5039163;28;20175;-85
2021/06/26 04:36:16;;;;;;;5.18;4.30;;;19.20;99.90;;;;;;5057068;28;20163;-85
2021/06/26 04:38:42;;;;;;;4.65;4.25;;;19.20;99.90;;;;;;5056587;28;20294;-86
2021/06/26 04:41:08;;;;;;;5.40;4.90;;;19.20;99.90;;;;;;5056140;28;20213;-86
2021/06/26 04:43:35;;;;;;;4.80;4.03;;;19.20;99.90;;;;;;5056587;28;20168;-86
2021/06/26 04:46:00;;;;;;;4.78;4.40;;;19.20;99.90;;;;;;5039092;28;20202;-86
2021/06/26 04:48:29;;;;;;;7.10;5.93;;;19.20;99.90;;;;;;5039204;28;20229;-86
2021/06/26 04:50:56;;;;;;;6.45;5.88;;;19.20;99.90;;;;;;5057041;28;20496;-86
2021/06/26 04:53:21;;;;;;;8.57;6.22;;;19.20;99.90;;;;;;5043509;28;20266;-86
2021/06/26 04:55:53;;;;;;;7.35;6.13;;;19.20;99.90;;;;;;5038861;28;20250;-87
2021/06/26 04:58:20;;;;;;;7.38;6.70;;;19.10;99.90;;;;;;5039113;28;20191;-87
2021/06/26 05:00:51;;;;;;;11.82;7.80;;;19.10;99.90;;;;;;5072276;28;20212;-86
2021/06/26 05:03:17;;;;;;;8.10;7.22;;;19.10;99.90;;;;;;5047218;28;20171;-87
2021/06/26 05:05:43;;;;;;;7.78;7.07;;;19.10;99.90;;;;;;5038961;28;20187;-87
2021/06/26 05:08:10;;;;;;;8.27;7.47;;;19.10;99.90;;;;;;5039158;28;20237;-86
2021/06/26 05:10:35;;;;;;;7.07;6.57;;;19.10;99.90;;;;;;5057758;28;20170;-87
2021/06/26 05:13:01;;;;;;;8.90;6.85;;;19.10;99.90;;;;;;5063587;28;20174;-88
2021/06/26 05:15:27;;;;;;;7.05;5.75;;;19.10;99.90;;;;;;5075268;28;20175;-86
2021/06/26 05:17:53;;;;;;;9.73;6.78;;;19.20;99.90;;;;;;5076503;28;20194;-88
2021/06/26 05:20:19;;;;;;;7.82;7.13;;;19.20;99.90;;;;;;5076429;28;20174;-88
2021/06/26 05:22:44;;;;;;;10.63;7.32;;;19.20;99.90;;;;;;5059383;28;20171;-87
2021/06/26 05:25:10;;;;;;;8.90;7.35;;;19.10;99.90;;;;;;5057140;28;20219;-88
2021/06/26 05:27:36;;;;;;;7.72;7.13;;;19.00;99.90;;;;;;5072876;28;20167;-88
2021/06/26 05:30:03;;;;;;;7.78;7.10;;;18.90;99.90;;;;;;5075475;28;20305;-88
2021/06/26 05:32:29;;;;;;;15.77;7.30;;;18.90;99.90;;;;;;5055443;28;20162;-88
2021/06/26 05:34:55;;;;;;;7.57;6.95;;;19.00;99.90;;;;;;5069695;28;20198;-88
2021/06/26 05:37:20;;;;;;;6.20;5.70;;;19.10;99.90;;;;;;5055095;28;20659;-88
2021/06/26 05:39:46;;;;;;;7.38;6.60;;;19.30;99.90;;;;;;5038529;28;20167;-88
2021/06/26 05:42:11;;;;;;;12.20;6.95;;;19.40;99.90;;;;;;5056193;28;20171;-87
2021/06/26 05:44:37;;;;;;;8.90;6.60;;;19.40;99.90;;;;;;5040897;28;20234;-88
2021/06/26 05:47:03;;;;;;;5.25;4.75;;;19.40;99.90;;;;;;5056198;28;20211;-88
2021/06/26 05:49:29;;;;;;;7.10;4.82;;;19.30;99.90;;;;;;5056228;28;20169;-87
2021/06/26 05:51:54;;;;;;;5.05;4.65;;;19.20;99.90;;;;;;5056983;28;20266;-88
2021/06/26 05:54:20;;;;;;;4.78;4.38;;;19.10;99.90;;;;;;5056234;28;20182;-88
2021/06/26 05:56:46;;;;;;;4.95;4.55;;;19.10;99.90;;;;;;5038618;28;20170;-87
2021/06/26 05:59:12;;;;;;;6.72;4.70;;;19.20;99.90;;;;;;5060781;28;20174;-88
2021/06/26 06:01:38;;;;;;;9.43;5.18;;;19.30;99.90;;;;;;5076259;28;20197;-88
2021/06/26 06:04:07;;;;;;;5.82;5.43;;;19.50;99.90;;;;;;5061178;28;20257;-88
2021/06/26 06:06:33;;;;;;;6.10;4.85;;;19.60;99.90;;;;;;5055939;28;20175;-88
2021/06/26 06:08:58;;;;;;;4.32;4.00;;;19.70;99.90;;;;;;5055271;28;20171;-88
2021/06/26 06:11:24;;;;;;;6.50;3.63;;;19.80;99.90;;;;;;5071252;28;20184;-88
2021/06/26 06:13:50;;;;;;;6.35;3.45;;;19.90;99.90;;;;;;5065569;28;20170;-88
2021/06/26 06:16:17;;;;;;;8.55;3.15;;;19.90;99.90;;;;;;5075371;28;20177;-88
2021/06/26 06:18:43;;;;;;;3.75;3.45;;;20.00;99.90;;;;;;5075261;28;20197;-87
2021/06/26 06:21:09;;;;;;;4.20;3.80;;;20.20;99.90;;;;;;5057208;28;20175;-86
2021/06/26 06:23:34;;;;;;;3.72;3.35;;;20.20;99.90;;;;;;5065423;28;20182;-87
2021/06/26 06:26:00;;;;;;;3.05;2.80;;;20.10;99.90;;;;;;5065717;28;20179;-87
2021/06/26 06:28:26;;;;;;;7.50;4.00;;;20.00;99.90;;;;;;5075299;28;20166;-87
2021/06/26 06:30:51;;;;;;;3.88;3.58;;;20.00;99.90;;;;;;5074147;28;20521;-87
2021/06/26 06:33:17;;;;;;;5.22;3.92;;;20.20;99.90;;;;;;5068168;28;20254;-86
2021/06/26 06:35:42;;;;;;;4.35;3.50;;;20.40;99.90;;;;;;5055790;28;20163;-86
2021/06/26 06:38:08;;;;;;;3.70;3.40;;;20.40;99.90;;;;;;5036862;28;20191;-86
2021/06/26 06:40:34;;;;;;;3.10;2.90;;;20.30;99.90;;;;;;5054756;28;20171;-86
2021/06/26 06:42:59;;;;;;;3.00;2.80;;;20.20;99.90;;;;;;5053020;28;20705;-86
2021/06/26 06:45:25;;;;;;;2.38;2.20;;;20.20;99.90;;;;;;5056128;28;20309;-86
2021/06/26 06:47:51;;;;;;;5.82;2.67;;;20.20;99.90;;;;;;5056757;28;20174;-85
2021/06/26 06:50:16;;;;;;;2.95;2.75;;;20.40;99.90;;;;;;5073053;28;20166;-86
2021/06/26 06:52:42;;;;;;;4.10;3.80;;;20.80;99.90;;;;;;5072896;28;20198;-85
2021/06/26 06:55:08;;;;;;;4.25;3.85;;;21.20;99.90;;;;;;5054929;28;20636;-85
2021/06/26 06:57:34;;;;;;;4.80;4.30;;;21.40;99.90;;;;;;5054745;28;20302;-85
2021/06/26 07:00:00;;;;;;;4.80;4.30;;;21.40;99.90;;;;;;5054467;28;20194;-85
2021/06/26 07:02:26;;;;;;;4.47;4.07;;;21.30;99.90;;;;;;5054275;28;20218;-85
2021/06/26 07:04:58;;;;;;;5.80;5.18;;;21.40;99.90;;;;;;5111123;27;20615;-86
2021/06/26 07:07:24;;;;;;;6.15;4.70;;;21.40;99.90;;;;;;5111121;28;20178;-85
2021/06/26 07:09:49;;;;;;;7.13;5.28;;;21.50;99.90;;;;;;5111335;28;20617;-85
2021/06/26 07:12:15;;;;;;;6.82;6.13;;;21.30;99.90;;;;;;5092712;28;20559;-84
2021/06/26 07:14:41;;;;;;;7.55;6.70;;;21.20;99.90;;;;;;5111218;28;20178;-85
2021/06/26 07:17:06;;;;;;;8.52;7.03;;;21.10;99.90;;;;;;5092397;28;20169;-85
2021/06/26 07:19:32;;;;;;;12.95;6.78;;;21.20;99.90;;;;;;5092839;28;20518;-85
2021/06/26 07:21:58;;;;;;;11.45;8.25;;;21.60;99.90;;;;;;5110722;28;20541;-85
2021/06/26 07:24:24;;;;;;;7.78;7.07;;;21.70;99.90;;;;;;5111093;28;20194;-85
2021/06/26 07:26:50;;;;;;;8.80;7.03;;;22.00;99.90;;;;;;5092798;28;20189;-85
2021/06/26 07:29:15;;;;;;;12.60;8.63;;;21.80;99.90;;;;;;5110423;28;20228;-85
2021/06/26 07:31:41;;;;;;;8.98;7.50;;;21.80;99.90;;;;;;5092065;28;20177;-84
2021/06/26 07:34:07;;;;;;;10.85;7.13;;;21.90;99.90;;;;;;5110920;28;20184;-85
2021/06/26 07:36:32;;;;;;;10.43;7.50;;;22.20;99.90;;;;;;5092421;28;20158;-83
2021/06/26 07:38:58;;;;;;;11.75;8.10;;;22.60;99.90;;;;;;5055492;28;20185;-85
2021/06/26 07:41:24;;;;;;;11.48;7.95;;;23.00;99.90;;;;;;5078476;28;20174;-84
2021/06/26 07:43:50;;;;;;;9.77;7.63;;;23.30;99.90;;;;;;5092056;28;20198;-83
2021/06/26 07:46:18;;;;;;;13.73;9.70;;;23.30;99.90;;;;;;5092044;28;20188;-84
2021/06/26 07:48:43;;;;;;;16.02;9.75;;;23.30;99.90;;;;;;5090552;28;20174;-83
2021/06/26 07:51:09;;;;;;;9.60;8.63;;;23.30;99.90;;;;;;5110505;28;20188;-83
2021/06/26 07:53:35;;;;;;;11.20;8.73;;;23.30;99.90;;;;;;5097262;28;20752;-84
2021/06/26 07:56:00;;;;;;;13.00;8.85;;;23.30;99.90;;;;;;5071919;28;20171;-85
2021/06/26 07:58:28;;;;;;;14.40;10.35;;;23.20;99.90;;;;;;5091691;28;20245;-84
2021/06/26 08:00:55;;;;;;;14.50;10.18;;;23.10;99.90;;;;;;5091737;28;20177;-85
2021/06/26 08:03:21;;;;;;;19.10;12.13;;;23.10;99.90;;;;;;5091330;28;20225;-86
2021/06/26 08:05:47;;;;;;;16.13;11.98;;;23.10;99.90;;;;;;5071639;28;20177;-87
2021/06/26 08:08:14;;;;;;;12.55;10.65;;;23.20;99.90;;;;;;5092235;28;20171;-85
2021/06/26 08:10:40;;;;;;;25.42;11.60;;;23.20;99.90;;;;;;5114817;28;20664;-84
2021/06/26 08:13:07;;;;;;;17.73;12.32;;;23.10;99.90;;;;;;5117085;28;20621;-84
2021/06/26 08:15:36;;;;;;;17.90;12.95;;;23.20;99.90;;;;;;5080723;28;20174;-84
2021/06/26 08:18:06;;;;;;;21.58;15.98;;;23.30;99.90;;;;;;5078340;28;20575;-83
2021/06/26 08:20:32;;;;;;;24.50;15.82;;;23.10;99.90;;;;;;5093194;28;20174;-84
2021/06/26 08:22:58;;;;;;;17.65;13.43;;;23.10;99.90;;;;;;5077980;28;20201;-84
2021/06/26 08:25:24;;;;;;;19.70;14.32;;;23.10;99.90;;;;;;5061297;28;20174;-84
2021/06/26 08:27:50;;;;;;;21.25;13.05;;;23.40;99.90;;;;;;5077890;28;20174;-85
2021/06/26 08:30:16;;;;;;;22.98;14.00;;;23.60;99.90;;;;;;5096300;28;20170;-85
2021/06/26 08:32:43;;;;;;;17.25;13.10;;;23.80;99.90;;;;;;5074047;28;20173;-84
2021/06/26 08:35:09;;;;;;;16.70;12.15;;;24.10;99.90;;;;;;5057799;28;20657;-84
2021/06/26 08:37:36;;;;;;;15.13;12.20;;;24.00;99.90;;;;;;5057774;28;20170;-84
2021/06/26 08:40:02;;;;;;;25.17;14.02;;;23.50;99.90;;;;;;5061809;28;20193;-85
2021/06/26 08:42:28;;;;;;;20.20;14.88;;;23.10;99.90;;;;;;5098305;28;20236;-83
2021/06/26 08:44:59;;;;;;;25.20;16.83;;;22.90;99.90;;;;;;5060286;28;20306;-84
2021/06/26 08:47:25;;;;;;;22.30;14.73;;;23.00;99.90;;;;;;5077768;28;20206;-85
2021/06/26 08:49:52;;;;;;;20.10;15.20;;;23.20;99.90;;;;;;5076477;28;20170;-84
2021/06/26 08:52:17;;;;;;;18.65;15.13;;;23.40;99.90;;;;;;5076814;28;20178;-85
2021/06/26 08:54:43;;;;;;;24.08;15.73;;;23.60;99.90;;;;;;5095147;28;20173;-83
2021/06/26 08:57:09;;;;;;;19.45;15.52;;;23.80;99.90;;;;;;5077290;28;20177;-83
2021/06/26 08:59:35;;;;;;;19.33;15.30;;;24.20;99.90;;;;;;5095290;28;20245;-83
2021/06/26 09:02:01;;;;;;;18.90;13.93;;;24.40;99.90;;;;;;5088269;28;20166;-83
2021/06/26 09:04:27;;;;;;;22.30;14.05;;;24.40;99.90;;;;;;5095304;28;20561;-83
2021/06/26 09:06:53;;;;;;;20.98;15.43;;;24.30;99.90;;;;;;5090384;28;20185;-83
2021/06/26 09:09:35;;;;;;;16.10;14.30;;;24.20;99.90;;;;;;5076927;28;20334;-85
2021/06/26 09:12:10;;;;;;;20.60;15.50;;;24.20;99.90;;;;;;5094568;28;20181;-85
2021/06/26 09:14:38;;;;;;;18.27;14.82;;;24.30;99.90;;;;;;5095113;28;20553;-83
2021/06/26 09:17:05;;;;;;;21.92;15.25;;;24.20;99.90;;;;;;5076142;28;20253;-84
2021/06/26 09:19:33;;;;;;;17.70;14.65;;;24.50;99.90;;;;;;5074844;28;20171;-84
2021/06/26 09:22:06;;;;;;;15.00;13.50;;;24.70;99.90;;;;;;5074998;28;20166;-84
2021/06/26 09:24:46;;;;;;;16.00;14.40;;;25.00;99.90;;;;;;5074474;28;20252;-84
2021/06/26 09:27:14;;;;;;;18.88;14.57;;;25.30;99.90;;;;;;5074858;28;20163;-85
2021/06/26 09:29:53;;;;;;;18.05;14.00;;;25.90;99.90;;;;;;5056847;28;20258;-85
2021/06/26 09:32:24;;;;;;;18.38;14.95;;;26.60;99.90;;;;;;5056700;28;20217;-85
2021/06/26 09:34:50;;;;;;;18.75;13.95;;;27.10;99.90;;;;;;5076100;28;20181;-86
2021/06/26 09:37:20;;;;;;;15.10;13.48;;;27.40;99.90;;;;;;5076321;28;20521;-85
2021/06/26 09:39:46;;;;;;;14.02;12.73;;;27.70;99.90;;;;;;5092479;28;20213;-85
2021/06/26 09:42:23;;;;;;;13.73;12.45;;;27.70;99.90;;;;;;5076615;28;20197;-84
2021/06/26 09:44:55;;;;;;;16.58;13.48;;;27.80;99.90;;;;;;5076059;28;20608;-85
2021/06/26 09:47:41;;;;;;;16.02;13.05;;;27.90;99.90;;;;;;5094474;28;20646;-85
2021/06/26 09:50:22;;;;;;;14.27;11.95;;;28.00;99.90;;;;;;5056449;28;20261;-86
2021/06/26 09:52:54;;;;;;;14.82;13.32;;;28.20;99.90;;;;;;5082611;28;20173;-85
2021/06/26 09:55:25;;;;;;;22.25;15.15;;;28.20;99.90;;;;;;5094108;28;20170;-86
2021/06/26 09:57:53;;;;;;;16.95;15.25;;;28.00;99.90;;;;;;5075824;28;20219;-86
2021/06/26 10:00:22;;;;;;;15.55;13.57;;;27.90;99.90;;;;;;5057901;28;20170;-83
2021/06/26 10:02:48;;;;;;;17.50;15.35;;;27.70;99.90;;;;;;5088526;28;20190;-84
2021/06/26 10:05:15;;;;;;;17.40;14.55;;;27.50;99.90;;;;;;5079353;28;20178;-83
2021/06/26 10:07:42;;;;;;;21.23;14.75;;;27.60;99.90;;;;;;5075555;28;20173;-87
2021/06/26 10:10:11;;;;;;;21.95;16.45;;;27.20;99.90;;;;;;5094207;28;20172;-87
2021/06/26 10:12:38;;;;;;;19.02;14.70;;;27.40;99.90;;;;;;5094298;28;20158;-86
2021/06/26 10:15:05;;;;;;;22.42;16.67;;;27.60;99.90;;;;;;5092446;28;20236;-87
2021/06/26 10:17:32;;;;;;;21.42;16.40;;;27.70;99.90;;;;;;5074684;28;20280;-86
2021/06/26 10:19:59;;;;;;;18.08;16.27;;;27.90;99.90;;;;;;5093159;28;20174;-85
2021/06/26 10:22:25;;;;;;;17.35;15.07;;;28.10;99.90;;;;;;5093519;28;20564;-86
2021/06/26 10:24:51;;;;;;;17.27;15.45;;;28.50;99.90;;;;;;5071732;28;20194;-86
2021/06/26 10:27:18;;;;;;;21.17;16.27;;;28.90;99.90;;;;;;5058860;28;20186;-86
2021/06/26 10:29:44;;;;;;;25.52;15.25;;;29.50;99.90;;;;;;5093426;28;20683;-85
2021/06/26 10:32:16;;;;;;;21.30;15.63;;;29.70;99.90;;;;;;5093928;28;20167;-89
2021/06/26 10:34:47;;;;;;;16.05;14.60;;;30.00;99.90;;;;;;5011110;28;20197;-86
2021/06/26 10:37:31;;;;;;;17.50;14.00;;;30.90;99.90;;;;;;5030703;28;20184;-85
2021/06/26 10:40:08;;;;;;;15.35;13.68;;;31.80;99.90;;;;;;5029595;28;20184;-88
2021/06/26 10:42:36;;;;;;;16.90;14.90;;;32.20;99.90;;;;;;5010865;28;20169;-85
2021/06/26 10:45:04;;;;;;;15.50;13.90;;;33.00;99.90;;;;;;5011186;28;20595;-85
2021/06/26 10:47:38;;;;;;;14.30;12.88;;;33.90;99.90;;;;;;5029895;28;20176;-88
2021/06/26 10:50:11;;;;;;;12.68;11.52;;;34.50;99.90;;;;;;5014274;28;20245;-84
2021/06/26 10:52:46;;;;;;;16.02;11.75;;;35.10;99.90;;;;;;5014117;28;20630;-86
2021/06/26 10:55:12;;;;;;;15.40;12.48;;;35.80;99.90;;;;;;5029322;28;20187;-86
2021/06/26 10:57:46;;;;;;;13.27;11.90;;;35.60;99.90;;;;;;5014146;28;20694;-85
2021/06/26 11:00:13;;;;;;;13.25;11.82;;;34.70;99.90;;;;;;5030434;28;20186;-84
2021/06/26 11:02:45;;;;;;;15.73;14.10;;;34.30;99.90;;;;;;5028685;28;20184;-86
2021/06/26 11:05:12;;;;;;;13.82;12.52;;;34.00;99.90;;;;;;5042505;28;20232;-87
2021/06/26 11:07:39;;;;;;;14.85;10.50;;;33.50;99.90;;;;;;5073322;28;20232;-88
2021/06/26 11:10:12;;;;;;;17.35;14.15;;;32.90;99.90;;;;;;5073353;28;20174;-89
2021/06/26 11:12:46;;;;;;;12.57;11.32;;;32.70;99.90;;;;;;5080045;28;20161;-87
2021/06/26 11:15:13;;;;;;;15.38;13.02;;;32.10;99.90;;;;;;5092108;28;20170;-89
2021/06/26 11:17:44;;;;;;;20.20;12.82;;;31.50;99.90;;;;;;5079372;28;20249;-87
2021/06/26 11:20:15;;;;;;;15.18;13.60;;;31.00;99.90;;;;;;5093409;28;20623;-90
2021/06/26 11:22:51;;;;;;;17.10;13.20;;;30.60;99.90;;;;;;5093190;28;20185;-92
2021/06/26 11:25:17;;;;;;;13.82;12.45;;;30.00;99.90;;;;;;5075102;28;20580;-89
2021/06/26 11:27:43;;;;;;;14.02;12.65;;;30.30;99.90;;;;;;5075487;28;20237;-87
2021/06/26 11:30:09;;;;;;;15.68;12.85;;;30.60;99.90;;;;;;5093995;28;20170;-89
2021/06/26 11:32:36;;;;;;;15.48;13.32;;;32.00;99.90;;;;;;5075916;28;20280;-90
2021/06/26 11:35:04;;;;;;;14.13;12.65;;;33.20;99.90;;;;;;5093046;28;20189;-89
2021/06/26 11:37:43;;;;;;;15.98;13.15;;;33.20;99.90;;;;;;5093993;28;20661;-90
2021/06/26 11:40:21;;;;;;;13.10;11.75;;;33.30;99.90;;;;;;5075882;28;20179;-90
2021/06/26 11:42:53;;;;;;;13.55;12.25;;;33.60;99.90;;;;;;5075916;28;20166;-90
2021/06/26 11:45:38;;;;;;;11.50;10.43;;;33.80;99.90;;;;;;5092871;28;20260;-90
2021/06/26 11:48:10;;;;;;;14.55;12.77;;;34.10;99.90;;;;;;5093818;28;20178;-88
2021/06/26 11:51:09;;;;;;;15.80;11.57;;;34.50;99.90;;;;;;5076408;28;20180;-87
2021/06/26 11:53:40;;;;;;;13.15;11.63;;;33.10;99.90;;;;;;5053313;28;20189;-88
2021/06/26 11:56:07;;;;;;;13.00;11.70;;;33.80;99.90;;;;;;5062383;28;20545;-89
2021/06/26 11:58:48;;;;;;;15.38;12.07;;;33.90;99.90;;;;;;5091538;28;20162;-86
2021/06/26 12:01:27;;;;;;;13.38;12.10;;;33.60;99.90;;;;;;5080868;28;20182;-82
2021/06/26 12:03:54;;;;;;;13.20;11.68;;;33.50;99.90;;;;;;5077312;28;20210;-93
2021/06/26 12:06:20;;;;;;;13.80;11.88;;;33.10;99.90;;;;;;5077575;28;20699;-92
2021/06/26 12:08:56;;;;;;;13.10;12.13;;;32.50;99.90;;;;;;5081065;28;20638;-91
2021/06/26 12:11:39;;;;;;;14.38;12.93;;;33.10;99.90;;;;;;5096841;28;20712;-89
2021/06/26 12:14:05;;;;;;;14.00;11.82;;;33.60;99.90;;;;;;5097456;28;20697;-90
2021/06/26 12:16:36;;;;;;;13.75;12.65;;;34.30;99.90;;;;;;5076151;28;20308;-88
2021/06/26 12:19:08;;;;;;;15.10;12.85;;;33.20;99.90;;;;;;5034649;28;20180;-88
2021/06/26 12:21:45;;;;;;;16.08;12.30;;;31.50;99.90;;;;;;5034296;28;20176;-87
2021/06/26 12:24:23;;;;;;;13.77;12.38;;;30.60;99.90;;;;;;4998871;28;20222;-89
2021/06/26 12:26:48;;;;;;;14.75;13.10;;;29.80;99.90;;;;;;5022347;28;20184;-89
2021/06/26 12:29:23;;;;;;;13.82;12.43;;;29.10;99.90;;;;;;5034824;28;20218;-90
2021/06/26 12:31:48;;;;;;;13.05;11.75;;;28.30;99.90;;;;;;5034636;28;20179;-90
2021/06/26 12:34:15;;;;;;;14.80;13.32;;;27.80;99.90;;;;;;5033617;28;20192;-89
2021/06/26 12:36:53;;;;;;;14.98;12.77;;;27.40;99.90;;;;;;5017059;28;20197;-89